sensor_id;sensor_type;location;lat;lon;timestamp;pressure;altitude;pressure_sealevel;temperature;humidity
68137;BME280;54939;50.826;9.030;2023-05-12T00:00:05;98493.53;;;18.60;55.53
68137;BME280;54939;50.826;9.030;2023-05-12T00:00:36;98492.69;;;18.59;55.53
68137;BME280;54939;50.826;9.030;2023-05-12T00:01:07;98494.56;;;18.59;55.53
68137;BME280;54939;50.826;9.030;2023-05-12T00:01:37;98497.88;;;18.61;55.57
68137;BME280;54939;50.826;9.030;2023-05-12T00:02:07;98489.75;;;18.61;55.47
68137;BME280;54939;50.826;9.030;2023-05-12T00:02:37;98490.00;;;18.59;55.50
68137;BME280;54939;50.826;9.030;2023-05-12T00:03:07;98489.16;;;18.59;55.48
68137;BME280;54939;50.826;9.030;2023-05-12T00:03:37;98490.00;;;18.59;55.46
68137;BME280;54939;50.826;9.030;2023-05-12T00:04:08;98493.75;;;18.58;55.49
68137;BME280;54939;50.826;9.030;2023-05-12T00:04:38;98494.56;;;18.59;55.51
68137;BME280;54939;50.826;9.030;2023-05-12T00:05:09;98491.88;;;18.59;55.45
68137;BME280;54939;50.826;9.030;2023-05-12T00:05:39;98491.25;;;18.57;55.72
68137;BME280;54939;50.826;9.030;2023-05-12T00:06:09;98489.38;;;18.57;55.55
68137;BME280;54939;50.826;9.030;2023-05-12T00:06:40;98485.16;;;18.55;55.50
68137;BME280;54939;50.826;9.030;2023-05-12T00:07:10;98492.06;;;18.57;55.56
68137;BME280;54939;50.826;9.030;2023-05-12T00:07:41;98490.19;;;18.58;55.57
68137;BME280;54939;50.826;9.030;2023-05-12T00:08:11;98490.19;;;18.58;55.51
68137;BME280;54939;50.826;9.030;2023-05-12T00:08:41;98489.56;;;18.56;55.40
68137;BME280;54939;50.826;9.030;2023-05-12T00:09:11;98496.44;;;18.58;55.51
68137;BME280;54939;50.826;9.030;2023-05-12T00:09:41;98490.19;;;18.58;55.64
68137;BME280;54939;50.826;9.030;2023-05-12T00:10:12;98491.88;;;18.59;55.46
68137;BME280;54939;50.826;9.030;2023-05-12T00:10:43;98487.28;;;18.59;55.50
68137;BME280;54939;50.826;9.030;2023-05-12T00:11:13;98490.00;;;18.59;55.51
68137;BME280;54939;50.826;9.030;2023-05-12T00:11:43;98491.88;;;18.59;55.40
68137;BME280;54939;50.826;9.030;2023-05-12T00:12:14;98490.19;;;18.58;55.44
68137;BME280;54939;50.826;9.030;2023-05-12T00:12:44;98493.75;;;18.58;55.43
68137;BME280;54939;50.826;9.030;2023-05-12T00:13:14;98491.03;;;18.58;55.42
68137;BME280;54939;50.826;9.030;2023-05-12T00:13:44;98494.56;;;18.59;55.50
68137;BME280;54939;50.826;9.030;2023-05-12T00:14:14;98494.56;;;18.59;55.57
68137;BME280;54939;50.826;9.030;2023-05-12T00:14:44;98494.56;;;18.59;55.51
68137;BME280;54939;50.826;9.030;2023-05-12T00:15:15;98494.56;;;18.59;55.42
68137;BME280;54939;50.826;9.030;2023-05-12T00:15:45;98490.19;;;18.58;55.61
68137;BME280;54939;50.826;9.030;2023-05-12T00:16:15;98488.53;;;18.57;55.58
68137;BME280;54939;50.826;9.030;2023-05-12T00:16:47;98494.78;;;18.57;55.54
68137;BME280;54939;50.826;9.030;2023-05-12T00:17:20;98488.34;;;18.58;55.57
68137;BME280;54939;50.826;9.030;2023-05-12T00:17:51;98488.53;;;18.57;55.45
68137;BME280;54939;50.826;9.030;2023-05-12T00:18:21;98492.91;;;18.58;55.48
68137;BME280;54939;50.826;9.030;2023-05-12T00:18:51;98494.78;;;18.57;55.36
68137;BME280;54939;50.826;9.030;2023-05-12T00:19:21;98488.53;;;18.57;55.43
68137;BME280;54939;50.826;9.030;2023-05-12T00:19:52;98491.25;;;18.57;55.39
68137;BME280;54939;50.826;9.030;2023-05-12T00:20:22;98487.50;;;18.58;55.40
68137;BME280;54939;50.826;9.030;2023-05-12T00:20:52;98491.25;;;18.57;55.56
68137;BME280;54939;50.826;9.030;2023-05-12T00:21:24;98490.41;;;18.56;55.51
68137;BME280;54939;50.826;9.030;2023-05-12T00:21:54;98489.38;;;18.57;55.39
68137;BME280;54939;50.826;9.030;2023-05-12T00:22:24;98491.25;;;18.57;55.57
68137;BME280;54939;50.826;9.030;2023-05-12T00:22:55;98485.00;;;18.56;55.45
68137;BME280;54939;50.826;9.030;2023-05-12T00:23:25;98488.72;;;18.55;55.51
68137;BME280;54939;50.826;9.030;2023-05-12T00:23:56;98489.56;;;18.56;55.59
68137;BME280;54939;50.826;9.030;2023-05-12T00:24:26;98487.88;;;18.55;55.46
68137;BME280;54939;50.826;9.030;2023-05-12T00:24:56;98481.47;;;18.56;55.47
68137;BME280;54939;50.826;9.030;2023-05-12T00:25:26;98484.16;;;18.56;55.51
68137;BME280;54939;50.826;9.030;2023-05-12T00:25:56;98490.41;;;18.56;55.46
68137;BME280;54939;50.826;9.030;2023-05-12T00:26:27;98491.41;;;18.55;55.53
68137;BME280;54939;50.826;9.030;2023-05-12T00:26:57;98491.41;;;18.55;55.42
68137;BME280;54939;50.826;9.030;2023-05-12T00:27:27;98477.06;;;18.55;55.62
68137;BME280;54939;50.826;9.030;2023-05-12T00:28:00;98486.00;;;18.55;55.55
68137;BME280;54939;50.826;9.030;2023-05-12T00:28:31;98484.16;;;18.56;55.58
68137;BME280;54939;50.826;9.030;2023-05-12T00:29:01;98484.16;;;18.56;55.48
68137;BME280;54939;50.826;9.030;2023-05-12T00:29:31;98486.88;;;18.56;55.53
68137;BME280;54939;50.826;9.030;2023-05-12T00:30:02;98482.28;;;18.56;55.52
68137;BME280;54939;50.826;9.030;2023-05-12T00:30:32;98491.41;;;18.55;55.48
68137;BME280;54939;50.826;9.030;2023-05-12T00:31:02;98482.47;;;18.55;55.48
68137;BME280;54939;50.826;9.030;2023-05-12T00:31:32;98483.28;;;18.55;55.39
68137;BME280;54939;50.826;9.030;2023-05-12T00:32:03;98485.16;;;18.55;55.56
68137;BME280;54939;50.826;9.030;2023-05-12T00:32:33;98481.63;;;18.54;55.53
68137;BME280;54939;50.826;9.030;2023-05-12T00:33:03;98487.03;;;18.54;55.51
68137;BME280;54939;50.826;9.030;2023-05-12T00:33:33;98484.34;;;18.54;55.59
68137;BME280;54939;50.826;9.030;2023-05-12T00:34:04;98481.88;;;18.53;55.42
68137;BME280;54939;50.826;9.030;2023-05-12T00:34:34;98482.69;;;18.53;55.52
68137;BME280;54939;50.826;9.030;2023-05-12T00:35:04;98483.50;;;18.54;55.41
68137;BME280;54939;50.826;9.030;2023-05-12T00:35:34;98478.34;;;18.52;55.47
68137;BME280;54939;50.826;9.030;2023-05-12T00:36:04;98481.88;;;18.53;55.50
68137;BME280;54939;50.826;9.030;2023-05-12T00:36:35;98481.63;;;18.54;55.55
68137;BME280;54939;50.826;9.030;2023-05-12T00:37:05;98488.09;;;18.53;55.38
68137;BME280;54939;50.826;9.030;2023-05-12T00:37:36;98480.00;;;18.53;55.50
68137;BME280;54939;50.826;9.030;2023-05-12T00:38:06;98477.50;;;18.52;55.55
68137;BME280;54939;50.826;9.030;2023-05-12T00:38:37;98475.38;;;18.54;55.49
68137;BME280;54939;50.826;9.030;2023-05-12T00:39:07;98475.38;;;18.54;55.51
68137;BME280;54939;50.826;9.030;2023-05-12T00:39:37;98468.34;;;18.53;55.56
68137;BME280;54939;50.826;9.030;2023-05-12T00:40:08;98475.38;;;18.54;55.50
68137;BME280;54939;50.826;9.030;2023-05-12T00:40:38;98465.66;;;18.53;55.46
68137;BME280;54939;50.826;9.030;2023-05-12T00:41:09;98469.97;;;18.54;55.44
68137;BME280;54939;50.826;9.030;2023-05-12T00:41:39;98469.19;;;18.53;55.47
68137;BME280;54939;50.826;9.030;2023-05-12T00:42:09;98465.41;;;18.54;55.55
68137;BME280;54939;50.826;9.030;2023-05-12T00:42:40;98464.56;;;18.54;55.53
68137;BME280;54939;50.826;9.030;2023-05-12T00:43:11;98469.19;;;18.53;55.51
68137;BME280;54939;50.826;9.030;2023-05-12T00:43:41;98460.25;;;18.53;55.51
68137;BME280;54939;50.826;9.030;2023-05-12T00:44:11;98471.88;;;18.53;55.57
68137;BME280;54939;50.826;9.030;2023-05-12T00:44:41;98472.94;;;18.52;55.55
68137;BME280;54939;50.826;9.030;2023-05-12T00:45:12;98461.06;;;18.53;55.61
68137;BME280;54939;50.826;9.030;2023-05-12T00:45:42;98477.06;;;18.55;55.57
68137;BME280;54939;50.826;9.030;2023-05-12T00:46:13;98461.88;;;18.54;55.46
68137;BME280;54939;50.826;9.030;2023-05-12T00:46:43;98473.75;;;18.53;55.46
68137;BME280;54939;50.826;9.030;2023-05-12T00:47:13;98473.75;;;18.53;55.57
68137;BME280;54939;50.826;9.030;2023-05-12T00:47:44;98473.75;;;18.53;55.47
68137;BME280;54939;50.826;9.030;2023-05-12T00:48:15;98477.28;;;18.53;55.46
68137;BME280;54939;50.826;9.030;2023-05-12T00:48:45;98476.47;;;18.53;55.59
68137;BME280;54939;50.826;9.030;2023-05-12T00:49:16;98473.75;;;18.53;55.49
68137;BME280;54939;50.826;9.030;2023-05-12T00:49:46;98473.75;;;18.53;55.50
68137;BME280;54939;50.826;9.030;2023-05-12T00:50:16;98481.03;;;18.52;55.61
68137;BME280;54939;50.826;9.030;2023-05-12T00:50:47;98472.94;;;18.52;55.49
68137;BME280;54939;50.826;9.030;2023-05-12T00:51:17;98476.47;;;18.53;55.46
68137;BME280;54939;50.826;9.030;2023-05-12T00:51:47;98472.09;;;18.52;55.41
68137;BME280;54939;50.826;9.030;2023-05-12T00:52:18;98481.88;;;18.53;55.52
68137;BME280;54939;50.826;9.030;2023-05-12T00:52:48;98472.94;;;18.52;55.49
68137;BME280;54939;50.826;9.030;2023-05-12T00:53:19;98473.13;;;18.50;55.57
68137;BME280;54939;50.826;9.030;2023-05-12T00:53:49;98469.59;;;18.50;55.42
68137;BME280;54939;50.826;9.030;2023-05-12T00:54:19;98473.97;;;18.51;55.53
68137;BME280;54939;50.826;9.030;2023-05-12T00:54:49;98466.88;;;18.50;55.50
68137;BME280;54939;50.826;9.030;2023-05-12T00:55:20;98480.41;;;18.50;55.66
68137;BME280;54939;50.826;9.030;2023-05-12T00:55:50;98473.13;;;18.50;55.55
68137;BME280;54939;50.826;9.030;2023-05-12T00:56:20;98475.84;;;18.50;55.64
68137;BME280;54939;50.826;9.030;2023-05-12T00:56:51;98473.13;;;18.50;55.58
68137;BME280;54939;50.826;9.030;2023-05-12T00:57:21;98479.56;;;18.49;55.65
68137;BME280;54939;50.826;9.030;2023-05-12T00:57:51;98478.53;;;18.50;55.52
68137;BME280;54939;50.826;9.030;2023-05-12T00:58:22;98477.50;;;18.52;55.46
68137;BME280;54939;50.826;9.030;2023-05-12T00:58:52;98483.75;;;18.52;55.55
68137;BME280;54939;50.826;9.030;2023-05-12T00:59:23;98483.75;;;18.52;55.53
68137;BME280;54939;50.826;9.030;2023-05-12T00:59:53;98482.91;;;18.52;55.40
68137;BME280;54939;50.826;9.030;2023-05-12T01:00:24;98486.44;;;18.52;55.49
68137;BME280;54939;50.826;9.030;2023-05-12T01:00:54;98481.03;;;18.52;55.31
68137;BME280;54939;50.826;9.030;2023-05-12T01:01:25;98483.75;;;18.52;55.50
68137;BME280;54939;50.826;9.030;2023-05-12T01:01:55;98478.53;;;18.50;55.54
68137;BME280;54939;50.826;9.030;2023-05-12T01:02:26;98482.06;;;18.51;55.48
68137;BME280;54939;50.826;9.030;2023-05-12T01:02:56;98480.19;;;18.52;55.55
68137;BME280;54939;50.826;9.030;2023-05-12T01:03:27;98477.69;;;18.50;55.49
68137;BME280;54939;50.826;9.030;2023-05-12T01:03:58;98483.09;;;18.50;55.64
68137;BME280;54939;50.826;9.030;2023-05-12T01:04:28;98487.47;;;18.51;55.63
68137;BME280;54939;50.826;9.030;2023-05-12T01:04:58;98489.34;;;18.50;55.56
68137;BME280;54939;50.826;9.030;2023-05-12T01:05:30;98483.94;;;18.50;55.50
68137;BME280;54939;50.826;9.030;2023-05-12T01:07:03;98490.19;;;18.51;55.46
68137;BME280;54939;50.826;9.030;2023-05-12T01:07:36;98490.19;;;18.51;55.56
68137;BME280;54939;50.826;9.030;2023-05-12T01:08:07;98486.66;;;18.50;55.46
68137;BME280;54939;50.826;9.030;2023-05-12T01:08:38;98482.06;;;18.51;55.54
68137;BME280;54939;50.826;9.030;2023-05-12T01:09:10;98486.66;;;18.50;55.45
68137;BME280;54939;50.826;9.030;2023-05-12T01:09:40;98490.38;;;18.49;55.58
68137;BME280;54939;50.826;9.030;2023-05-12T01:10:17;98489.53;;;18.49;55.56
68137;BME280;54939;50.826;9.030;2023-05-12T01:10:47;98491.22;;;18.50;55.62
68137;BME280;54939;50.826;9.030;2023-05-12T01:11:17;98484.97;;;18.49;55.53
68137;BME280;54939;50.826;9.030;2023-05-12T01:11:48;98493.09;;;18.49;55.51
68137;BME280;54939;50.826;9.030;2023-05-12T01:12:18;98498.69;;;18.48;55.51
68137;BME280;54939;50.826;9.030;2023-05-12T01:12:50;98489.53;;;18.49;55.59
68137;BME280;54939;50.826;9.030;2023-05-12T01:13:20;98487.28;;;18.46;55.50
68137;BME280;54939;50.826;9.030;2023-05-12T01:13:50;98487.69;;;18.49;55.57
68137;BME280;54939;50.826;9.030;2023-05-12T01:14:21;98489.53;;;18.49;55.59
68137;BME280;54939;50.826;9.030;2023-05-12T01:14:51;98488.72;;;18.48;55.50
68137;BME280;54939;50.826;9.030;2023-05-12T01:15:22;98492.44;;;18.47;55.52
68137;BME280;54939;50.826;9.030;2023-05-12T01:15:52;98492.44;;;18.47;55.64
68137;BME280;54939;50.826;9.030;2023-05-12T01:16:25;98496.00;;;18.48;55.57
68137;BME280;54939;50.826;9.030;2023-05-12T01:16:59;98487.88;;;18.48;55.59
68137;BME280;54939;50.826;9.030;2023-05-12T01:17:31;98490.59;;;18.48;55.54
68137;BME280;54939;50.826;9.030;2023-05-12T01:18:04;98489.75;;;18.47;55.56
68137;BME280;54939;50.826;9.030;2023-05-12T01:18:36;98492.44;;;18.47;55.59
68137;BME280;54939;50.826;9.030;2023-05-12T01:19:08;98490.59;;;18.48;55.61
68137;BME280;54939;50.826;9.030;2023-05-12T01:19:52;98492.44;;;18.47;55.63
68137;BME280;54939;50.826;9.030;2023-05-12T01:20:24;98490.78;;;18.46;55.54
68137;BME280;54939;50.826;9.030;2023-05-12T01:20:55;98491.63;;;18.47;55.65
68137;BME280;54939;50.826;9.030;2023-05-12T01:21:26;98488.91;;;18.47;55.57
68137;BME280;54939;50.826;9.030;2023-05-12T01:21:56;98488.91;;;18.47;55.51
68137;BME280;54939;50.826;9.030;2023-05-12T01:22:27;98490.59;;;18.48;55.55
68137;BME280;54939;50.826;9.030;2023-05-12T01:23:00;98490.00;;;18.46;55.53
68137;BME280;54939;50.826;9.030;2023-05-12T01:23:34;98489.75;;;18.47;55.57
68137;BME280;54939;50.826;9.030;2023-05-12T01:24:06;98492.69;;;18.46;55.49
68137;BME280;54939;50.826;9.030;2023-05-12T01:24:39;98484.34;;;18.47;55.62
68137;BME280;54939;50.826;9.030;2023-05-12T01:25:11;98490.59;;;18.48;55.50
68137;BME280;54939;50.826;9.030;2023-05-12T01:25:42;98491.63;;;18.47;55.58
68137;BME280;54939;50.826;9.030;2023-05-12T01:26:15;98487.03;;;18.47;55.57
68137;BME280;54939;50.826;9.030;2023-05-12T01:26:45;98486.22;;;18.47;55.51
68137;BME280;54939;50.826;9.030;2023-05-12T01:27:15;98490.78;;;18.46;55.37
68137;BME280;54939;50.826;9.030;2023-05-12T01:27:46;98486.22;;;18.47;55.44
68137;BME280;54939;50.826;9.030;2023-05-12T01:28:17;98484.34;;;18.47;55.42
68137;BME280;54939;50.826;9.030;2023-05-12T01:28:48;98488.09;;;18.46;55.47
68137;BME280;54939;50.826;9.030;2023-05-12T01:29:19;98493.50;;;18.46;55.56
68137;BME280;54939;50.826;9.030;2023-05-12T01:29:50;98494.31;;;18.47;55.51
68137;BME280;54939;50.826;9.030;2023-05-12T01:30:21;98486.22;;;18.47;55.53
68137;BME280;54939;50.826;9.030;2023-05-12T01:30:51;98488.31;;;18.45;55.62
68137;BME280;54939;50.826;9.030;2023-05-12T01:31:22;98490.78;;;18.46;55.54
68137;BME280;54939;50.826;9.030;2023-05-12T01:31:53;98490.00;;;18.46;55.54
68137;BME280;54939;50.826;9.030;2023-05-12T01:32:24;98495.41;;;18.46;55.51
68137;BME280;54939;50.826;9.030;2023-05-12T01:32:54;98489.16;;;18.45;55.65
68137;BME280;54939;50.826;9.030;2023-05-12T01:33:24;98483.75;;;18.45;55.36
68137;BME280;54939;50.826;9.030;2023-05-12T01:33:54;98484.59;;;18.46;55.56
68137;BME280;54939;50.826;9.030;2023-05-12T01:34:25;98483.75;;;18.45;55.54
68137;BME280;54939;50.826;9.030;2023-05-12T01:34:55;98488.09;;;18.46;55.53
68137;BME280;54939;50.826;9.030;2023-05-12T01:35:25;98492.69;;;18.46;55.59
68137;BME280;54939;50.826;9.030;2023-05-12T01:35:55;98491.63;;;18.47;55.60
68137;BME280;54939;50.826;9.030;2023-05-12T01:36:26;98490.00;;;18.46;55.64
68137;BME280;54939;50.826;9.030;2023-05-12T01:36:56;98489.16;;;18.45;55.53
68137;BME280;54939;50.826;9.030;2023-05-12T01:37:26;98493.72;;;18.45;55.57
68137;BME280;54939;50.826;9.030;2023-05-12T01:37:56;98483.75;;;18.45;55.57
68137;BME280;54939;50.826;9.030;2023-05-12T01:38:26;98495.41;;;18.46;55.56
68137;BME280;54939;50.826;9.030;2023-05-12T01:38:57;98488.31;;;18.45;55.53
68137;BME280;54939;50.826;9.030;2023-05-12T01:39:27;98490.78;;;18.46;55.48
68137;BME280;54939;50.826;9.030;2023-05-12T01:39:57;98485.63;;;18.45;55.52
68137;BME280;54939;50.826;9.030;2023-05-12T01:40:27;98488.09;;;18.46;55.58
68137;BME280;54939;50.826;9.030;2023-05-12T01:40:57;98488.31;;;18.45;55.47
68137;BME280;54939;50.826;9.030;2023-05-12T01:41:28;98491.84;;;18.45;55.53
68137;BME280;54939;50.826;9.030;2023-05-12T01:41:58;98494.75;;;18.44;55.39
68137;BME280;54939;50.826;9.030;2023-05-12T01:42:28;98496.44;;;18.45;55.52
68137;BME280;54939;50.826;9.030;2023-05-12T01:42:58;98486.84;;;18.42;55.47
68137;BME280;54939;50.826;9.030;2023-05-12T01:43:28;98491.84;;;18.45;55.50
68137;BME280;54939;50.826;9.030;2023-05-12T01:43:58;98487.47;;;18.44;55.49
68137;BME280;54939;50.826;9.030;2023-05-12T01:44:29;98495.59;;;18.44;55.38
68137;BME280;54939;50.826;9.030;2023-05-12T01:44:59;98488.31;;;18.45;55.47
68137;BME280;54939;50.826;9.030;2023-05-12T01:45:29;98486.44;;;18.45;55.55
68137;BME280;54939;50.826;9.030;2023-05-12T01:46:00;98492.06;;;18.44;55.44
68137;BME280;54939;50.826;9.030;2023-05-12T01:46:30;98496.44;;;18.45;55.51
68137;BME280;54939;50.826;9.030;2023-05-12T01:47:00;98496.44;;;18.45;55.49
68137;BME280;54939;50.826;9.030;2023-05-12T01:47:30;98493.94;;;18.43;55.52
68137;BME280;54939;50.826;9.030;2023-05-12T01:48:01;98489.34;;;18.44;55.51
68137;BME280;54939;50.826;9.030;2023-05-12T01:48:31;98495.59;;;18.44;55.53
68137;BME280;54939;50.826;9.030;2023-05-12T01:49:01;98491.22;;;18.43;55.51
68137;BME280;54939;50.826;9.030;2023-05-12T01:49:31;98502.03;;;18.43;55.54
68137;BME280;54939;50.826;9.030;2023-05-12T01:50:01;98493.94;;;18.43;55.49
68137;BME280;54939;50.826;9.030;2023-05-12T01:50:32;98500.38;;;18.42;55.47
68137;BME280;54939;50.826;9.030;2023-05-12T01:51:05;98501.00;;;18.44;55.51
68137;BME280;54939;50.826;9.030;2023-05-12T01:51:35;98496.63;;;18.43;55.52
68137;BME280;54939;50.826;9.030;2023-05-12T01:52:05;98495.78;;;18.43;55.47
68137;BME280;54939;50.826;9.030;2023-05-12T01:52:35;98502.03;;;18.43;55.48
68137;BME280;54939;50.826;9.030;2023-05-12T01:53:06;98495.78;;;18.43;55.49
68137;BME280;54939;50.826;9.030;2023-05-12T01:53:36;98501.19;;;18.43;55.50
68137;BME280;54939;50.826;9.030;2023-05-12T01:54:06;98497.66;;;18.42;55.45
68137;BME280;54939;50.826;9.030;2023-05-12T01:54:36;98497.47;;;18.44;55.50
68137;BME280;54939;50.826;9.030;2023-05-12T01:55:06;98503.91;;;18.43;55.55
68137;BME280;54939;50.826;9.030;2023-05-12T01:55:37;98499.34;;;18.43;55.58
68137;BME280;54939;50.826;9.030;2023-05-12T01:56:07;98502.25;;;18.42;55.63
68137;BME280;54939;50.826;9.030;2023-05-12T01:56:37;98504.09;;;18.41;55.68
68137;BME280;54939;50.826;9.030;2023-05-12T01:57:07;98501.41;;;18.41;55.47
68137;BME280;54939;50.826;9.030;2023-05-12T01:57:37;98506.59;;;18.43;55.52
68137;BME280;54939;50.826;9.030;2023-05-12T01:58:08;98503.06;;;18.42;55.55
68137;BME280;54939;50.826;9.030;2023-05-12T01:58:38;98502.25;;;18.42;55.54
68137;BME280;54939;50.826;9.030;2023-05-12T01:59:08;98504.94;;;18.42;55.67
68137;BME280;54939;50.826;9.030;2023-05-12T01:59:38;98500.38;;;18.42;55.53
68137;BME280;54939;50.826;9.030;2023-05-12T02:00:08;98509.50;;;18.41;55.60
68137;BME280;54939;50.826;9.030;2023-05-12T02:00:39;98507.84;;;18.40;55.63
68137;BME280;54939;50.826;9.030;2023-05-12T02:01:09;98510.34;;;18.42;55.48
68137;BME280;54939;50.826;9.030;2023-05-12T02:01:39;98511.38;;;18.41;55.56
68137;BME280;54939;50.826;9.030;2023-05-12T02:02:09;98508.69;;;18.41;55.61
68137;BME280;54939;50.826;9.030;2023-05-12T02:02:41;98511.19;;;18.42;55.55
68137;BME280;54939;50.826;9.030;2023-05-12T02:03:14;98503.28;;;18.41;55.48
68137;BME280;54939;50.826;9.030;2023-05-12T02:03:44;98507.84;;;18.40;55.53
68137;BME280;54939;50.826;9.030;2023-05-12T02:04:14;98511.38;;;18.41;55.52
68137;BME280;54939;50.826;9.030;2023-05-12T02:04:44;98512.22;;;18.41;55.49
68137;BME280;54939;50.826;9.030;2023-05-12T02:05:15;98514.09;;;18.41;55.43
68137;BME280;54939;50.826;9.030;2023-05-12T02:05:45;98507.84;;;18.40;55.52
68137;BME280;54939;50.826;9.030;2023-05-12T02:06:15;98514.28;;;18.39;55.56
68137;BME280;54939;50.826;9.030;2023-05-12T02:06:46;98518.88;;;18.39;55.57
68137;BME280;54939;50.826;9.030;2023-05-12T02:07:16;98514.28;;;18.39;55.61
68137;BME280;54939;50.826;9.030;2023-05-12T02:07:46;98518.88;;;18.39;55.59
68137;BME280;54939;50.826;9.030;2023-05-12T02:08:17;98514.28;;;18.39;55.55
68137;BME280;54939;50.826;9.030;2023-05-12T02:08:47;98511.59;;;18.39;55.59
68137;BME280;54939;50.826;9.030;2023-05-12T02:09:17;98516.97;;;18.39;55.56
68137;BME280;54939;50.826;9.030;2023-05-12T02:09:47;98518.88;;;18.39;55.65
68137;BME280;54939;50.826;9.030;2023-05-12T02:10:17;98512.66;;;18.38;55.54
68137;BME280;54939;50.826;9.030;2023-05-12T02:10:48;98515.34;;;18.38;55.49
68137;BME280;54939;50.826;9.030;2023-05-12T02:11:18;98516.97;;;18.39;55.62
68137;BME280;54939;50.826;9.030;2023-05-12T02:11:48;98512.66;;;18.38;55.61
68137;BME280;54939;50.826;9.030;2023-05-12T02:12:18;98514.53;;;18.38;55.53
68137;BME280;54939;50.826;9.030;2023-05-12T02:12:49;98514.28;;;18.39;55.66
68137;BME280;54939;50.826;9.030;2023-05-12T02:13:19;98518.06;;;18.38;55.59
68137;BME280;54939;50.826;9.030;2023-05-12T02:13:49;98509.13;;;18.38;55.53
68137;BME280;54939;50.826;9.030;2023-05-12T02:14:19;98515.34;;;18.38;55.57
68137;BME280;54939;50.826;9.030;2023-05-12T02:14:50;98511.81;;;18.38;55.62
68137;BME280;54939;50.826;9.030;2023-05-12T02:15:20;98518.06;;;18.38;55.64
68137;BME280;54939;50.826;9.030;2023-05-12T02:15:50;98515.34;;;18.38;55.50
68137;BME280;54939;50.826;9.030;2023-05-12T02:16:20;98514.28;;;18.39;55.47
68137;BME280;54939;50.826;9.030;2023-05-12T02:16:50;98522.38;;;18.39;55.49
68137;BME280;54939;50.826;9.030;2023-05-12T02:17:21;98527.00;;;18.39;55.66
68137;BME280;54939;50.826;9.030;2023-05-12T02:17:53;98514.53;;;18.38;55.59
68137;BME280;54939;50.826;9.030;2023-05-12T02:18:24;98515.34;;;18.38;55.49
68137;BME280;54939;50.826;9.030;2023-05-12T02:18:54;98516.38;;;18.37;55.54
68137;BME280;54939;50.826;9.030;2023-05-12T02:19:24;98525.31;;;18.38;55.50
68137;BME280;54939;50.826;9.030;2023-05-12T02:19:54;98516.38;;;18.37;55.66
68137;BME280;54939;50.826;9.030;2023-05-12T02:20:25;98523.66;;;18.37;55.58
68137;BME280;54939;50.826;9.030;2023-05-12T02:20:56;98522.63;;;18.38;55.56
68137;BME280;54939;50.826;9.030;2023-05-12T02:21:26;98518.25;;;18.37;55.52
68137;BME280;54939;50.826;9.030;2023-05-12T02:21:57;98525.53;;;18.36;55.48
68137;BME280;54939;50.826;9.030;2023-05-12T02:22:27;98517.41;;;18.36;55.49
68137;BME280;54939;50.826;9.030;2023-05-12T02:22:57;98514.72;;;18.36;55.54
68137;BME280;54939;50.826;9.030;2023-05-12T02:23:27;98525.31;;;18.38;55.68
68137;BME280;54939;50.826;9.030;2023-05-12T02:23:57;98525.53;;;18.36;55.64
68137;BME280;54939;50.826;9.030;2023-05-12T02:24:27;98524.50;;;18.37;55.52
68137;BME280;54939;50.826;9.030;2023-05-12T02:24:58;98524.50;;;18.37;55.50
68137;BME280;54939;50.826;9.030;2023-05-12T02:25:28;98520.97;;;18.37;55.54
68137;BME280;54939;50.826;9.030;2023-05-12T02:25:58;98521.78;;;18.37;55.55
68137;BME280;54939;50.826;9.030;2023-05-12T02:26:28;98523.47;;;18.38;55.49
68137;BME280;54939;50.826;9.030;2023-05-12T02:26:58;98517.41;;;18.36;55.59
68137;BME280;54939;50.826;9.030;2023-05-12T02:27:29;98527.19;;;18.37;55.50
68137;BME280;54939;50.826;9.030;2023-05-12T02:28:01;98525.31;;;18.38;55.61
68137;BME280;54939;50.826;9.030;2023-05-12T02:28:31;98522.81;;;18.36;55.50
68137;BME280;54939;50.826;9.030;2023-05-12T02:29:02;98525.53;;;18.36;55.58
68137;BME280;54939;50.826;9.030;2023-05-12T02:29:32;98517.81;;;18.33;55.48
68137;BME280;54939;50.826;9.030;2023-05-12T02:30:02;98526.56;;;18.35;55.66
68137;BME280;54939;50.826;9.030;2023-05-12T02:30:33;98520.31;;;18.35;55.53
68137;BME280;54939;50.826;9.030;2023-05-12T02:31:03;98525.72;;;18.35;55.61
68137;BME280;54939;50.826;9.030;2023-05-12T02:31:33;98523.84;;;18.35;55.54
68137;BME280;54939;50.826;9.030;2023-05-12T02:32:04;98524.91;;;18.34;55.54
68137;BME280;54939;50.826;9.030;2023-05-12T02:32:34;98523.03;;;18.35;55.60
68137;BME280;54939;50.826;9.030;2023-05-12T02:33:04;98522.19;;;18.34;55.56
68137;BME280;54939;50.826;9.030;2023-05-12T02:33:35;98528.44;;;18.35;55.61
68137;BME280;54939;50.826;9.030;2023-05-12T02:34:05;98524.06;;;18.34;55.51
68137;BME280;54939;50.826;9.030;2023-05-12T02:34:35;98528.44;;;18.35;55.65
68137;BME280;54939;50.826;9.030;2023-05-12T02:35:06;98527.59;;;18.34;55.63
68137;BME280;54939;50.826;9.030;2023-05-12T02:35:37;98523.03;;;18.35;55.67
68137;BME280;54939;50.826;9.030;2023-05-12T02:36:07;98521.34;;;18.34;55.47
68137;BME280;54939;50.826;9.030;2023-05-12T02:36:37;98531.97;;;18.35;55.64
68137;BME280;54939;50.826;9.030;2023-05-12T02:37:07;98523.03;;;18.35;55.64
68137;BME280;54939;50.826;9.030;2023-05-12T02:37:37;98529.25;;;18.35;55.52
68137;BME280;54939;50.826;9.030;2023-05-12T02:38:08;98534.66;;;18.35;55.49
68137;BME280;54939;50.826;9.030;2023-05-12T02:38:38;98525.09;;;18.33;55.57
68137;BME280;54939;50.826;9.030;2023-05-12T02:39:09;98535.91;;;18.33;55.57
68137;BME280;54939;50.826;9.030;2023-05-12T02:39:39;98527.00;;;18.32;55.52
68137;BME280;54939;50.826;9.030;2023-05-12T02:40:09;98527.78;;;18.33;55.70
68137;BME280;54939;50.826;9.030;2023-05-12T02:40:40;98524.28;;;18.32;55.60
68137;BME280;54939;50.826;9.030;2023-05-12T02:41:11;98525.94;;;18.33;55.57
68137;BME280;54939;50.826;9.030;2023-05-12T02:41:41;98519.94;;;18.31;55.63
68137;BME280;54939;50.826;9.030;2023-05-12T02:42:11;98527.78;;;18.33;55.64
68137;BME280;54939;50.826;9.030;2023-05-12T02:42:41;98524.06;;;18.34;55.55